Snow/Ice From: 16-12-2017 16:00 Until: 17-12-2017 16:00 warning for: Snow/Ice Level: Yellow info button

Although rather usual in this region, locally or potentially dangerous phenomena are expected. (such as local winds, summer thunderstorms, rising streams or high waves) Be aware and pay attention to the latest weather updates, especially if you carry out activities exposed to weather or close to a stream or shoreline. 


Meteo18 Weather Cam more information Meteo18 Weather Cam


Thunder radar more information blitzortung!


warning for Snow/Ice more information rain snow radar


Visit our other weather sites:

Template documentation
and downloads

And another site



Weather Underground History page Text

Daily Summary for February 22, 2016 Units:  Metric    English   Both
« Previous Day
Next Day »
Daily Weekly Monthly Yearly Custom
  High: Low: Average:
Temperature: 11.3 °C 8.0 °C 9.3 °C
Dew Point: 8.6 °C 7.3 °C 8.1 °C
Humidity: 97 % 79 % 92 %
Wind Speed: 17.7 km/h 0.0 km/h 3.9 km/h
Wind Gust: 22.5 km/h - -
Wind:- - SW
Pressure: 1019.2 hPa 1014.4 hPa -
Precipitation: 0.8 mm    
Historical Graphs
 
 
Tabular Data for February 22, 2016
Time Temperature Dew Point Pressure Wind Wind Speed Wind Gust Humidity Rainfall Rate (Hourly)
00:02 9.4 °C 8.5 °C 1019.2 hPa SW 3.2 km/h 9.7 km/h 94 % 0.0 mm
00:07 9.4 °C 8.3 °C 1019.2 hPa SW 6.4 km/h 9.7 km/h 93 % 0.0 mm
00:12 9.5 °C 8.4 °C 1019.2 hPa WSW 6.4 km/h 9.7 km/h 93 % 0.0 mm
00:17 9.5 °C 8.6 °C 1019.2 hPa SW 1.6 km/h 9.7 km/h 94 % 0.0 mm
00:22 9.4 °C 8.5 °C 1019.2 hPa SW 3.2 km/h 14.5 km/h 94 % 0.0 mm
00:27 9.4 °C 8.5 °C 1019.2 hPa SW 6.4 km/h 14.5 km/h 94 % 0.0 mm
00:32 9.4 °C 8.5 °C 1019.2 hPa SE 3.2 km/h 11.3 km/h 94 % 0.0 mm
00:37 9.3 °C 8.4 °C 1019.2 hPa SW 3.2 km/h 11.3 km/h 94 % 0.0 mm
00:42 9.3 °C 8.4 °C 1019.2 hPa SW 9.7 km/h 9.7 km/h 94 % 0.0 mm
00:47 9.3 °C 8.4 °C 1019.2 hPa SW 9.7 km/h 14.5 km/h 94 % 0.0 mm
00:52 9.3 °C 8.4 °C 1019.2 hPa SW 4.8 km/h 14.5 km/h 94 % 0.0 mm
00:57 9.2 °C 8.4 °C 1019.2 hPa SW 6.4 km/h 14.5 km/h 95 % 0.0 mm
01:02 9.2 °C 8.4 °C 1019.2 hPa WSW 1.6 km/h 14.5 km/h 95 % 0.0 mm
01:07 9.1 °C 8.5 °C 1019.2 hPa SW 8.0 km/h 12.9 km/h 96 % 0.0 mm
01:12 9.1 °C 8.5 °C 1019.2 hPa WSW 6.4 km/h 12.9 km/h 96 % 0.0 mm
01:17 8.9 °C 8.3 °C 1019.2 hPa SSW 4.8 km/h 9.7 km/h 96 % 0.0 mm
01:27 8.9 °C 8.3 °C 1019.2 hPa WSW 3.2 km/h 16.1 km/h 96 % 0.0 mm
01:37 8.9 °C 8.3 °C 1019.2 hPa WSW 1.6 km/h 16.1 km/h 96 % 0.0 mm
01:42 8.9 °C 8.4 °C 1019.2 hPa WSW 3.2 km/h 16.1 km/h 97 % 0.0 mm
01:47 8.9 °C 8.4 °C 1019.2 hPa WSW 3.2 km/h 11.3 km/h 97 % 0.0 mm
01:52 8.9 °C 8.4 °C 1018.8 hPa SW 3.2 km/h 11.3 km/h 97 % 0.0 mm
01:57 8.8 °C 8.3 °C 1019.2 hPa WSW 1.6 km/h 9.7 km/h 97 % 0.0 mm
02:02 8.8 °C 8.3 °C 1018.8 hPa WSW 3.2 km/h 9.7 km/h 97 % 0.0 mm
02:07 8.8 °C 8.3 °C 1018.8 hPa SW 4.8 km/h 12.9 km/h 97 % 0.0 mm
02:12 8.8 °C 8.3 °C 1018.8 hPa West 1.6 km/h 12.9 km/h 97 % 0.0 mm
02:17 8.8 °C 8.3 °C 1018.8 hPa South 3.2 km/h 12.9 km/h 97 % 0.0 mm
02:22 8.8 °C 8.3 °C 1018.8 hPa WSW 4.8 km/h 12.9 km/h 97 % 0.0 mm
02:32 8.8 °C 8.3 °C 1018.8 hPa SW 3.2 km/h 8.0 km/h 97 % 0.0 mm
02:37 8.8 °C 8.3 °C 1018.8 hPa SW 3.2 km/h 11.3 km/h 97 % 0.0 mm
02:42 8.7 °C 8.3 °C 1018.8 hPa SSW 3.2 km/h 11.3 km/h 97 % 0.0 mm
02:47 8.7 °C 8.3 °C 1018.8 hPa WSW 4.8 km/h 8.0 km/h 97 % 0.0 mm
02:52 8.7 °C 8.3 °C 1018.8 hPa Calm   8.0 km/h 97 % 0.0 mm
02:57 8.7 °C 8.3 °C 1018.8 hPa SW 3.2 km/h 11.3 km/h 97 % 0.0 mm
03:07 8.7 °C 8.3 °C 1018.8 hPa SW 3.2 km/h 9.7 km/h 97 % 0.0 mm
03:12 8.7 °C 8.3 °C 1018.8 hPa SW 3.2 km/h 9.7 km/h 97 % 0.0 mm
03:17 8.7 °C 8.3 °C 1018.5 hPa Calm   8.0 km/h 97 % 0.0 mm
03:22 8.7 °C 8.3 °C 1018.8 hPa Calm   8.0 km/h 97 % 0.0 mm
03:27 8.7 °C 8.3 °C 1018.8 hPa SSW 1.6 km/h 6.4 km/h 97 % 0.0 mm
03:32 8.6 °C 8.2 °C 1018.5 hPa SW 3.2 km/h 6.4 km/h 97 % 0.0 mm
03:37 8.6 °C 8.2 °C 1018.5 hPa WSW 1.6 km/h 4.8 km/h 97 % 0.0 mm
03:42 8.7 °C 8.3 °C 1018.5 hPa WSW 3.2 km/h 4.8 km/h 97 % 0.0 mm
03:47 8.7 °C 8.3 °C 1018.5 hPa SW 1.6 km/h 9.7 km/h 97 % 0.0 mm
03:52 8.7 °C 8.3 °C 1018.2 hPa South 3.2 km/h 9.7 km/h 97 % 0.0 mm
03:57 8.6 °C 8.2 °C 1018.2 hPa Calm   4.8 km/h 97 % 0.0 mm
04:02 8.6 °C 8.2 °C 1018.2 hPa SW 1.6 km/h 4.8 km/h 97 % 0.0 mm
04:07 8.6 °C 8.2 °C 1018.2 hPa SSW 1.6 km/h 6.4 km/h 97 % 0.0 mm
04:12 8.6 °C 8.2 °C 1018.2 hPa WSW 3.2 km/h 6.4 km/h 97 % 0.0 mm
04:17 8.6 °C 8.2 °C 1018.2 hPa SW 3.2 km/h 6.4 km/h 97 % 0.0 mm
04:27 8.6 °C 8.2 °C 1018.2 hPa WSW 3.2 km/h 8.0 km/h 97 % 0.0 mm
04:32 8.6 °C 8.2 °C 1018.2 hPa WSW 3.2 km/h 8.0 km/h 97 % 0.0 mm
04:37 8.6 °C 8.0 °C 1018.2 hPa Calm   9.7 km/h 96 % 0.0 mm
04:42 8.6 °C 8.0 °C 1017.8 hPa WSW 3.2 km/h 9.7 km/h 96 % 0.0 mm
04:57 8.6 °C 8.0 °C 1017.8 hPa SW 3.2 km/h 11.3 km/h 96 % 0.0 mm
05:02 8.6 °C 8.0 °C 1017.8 hPa WSW 3.2 km/h 11.3 km/h 96 % 0.0 mm
05:12 8.5 °C 7.9 °C 1017.8 hPa SW 4.8 km/h 9.7 km/h 96 % 0.0 mm
05:17 8.5 °C 7.9 °C 1017.8 hPa SW 4.8 km/h 12.9 km/h 96 % 0.0 mm
05:27 8.5 °C 7.7 °C 1017.8 hPa SW 8.0 km/h 9.7 km/h 95 % 0.0 mm
05:32 8.5 °C 7.7 °C 1017.8 hPa SSW 3.2 km/h 9.7 km/h 95 % 0.0 mm
05:42 8.4 °C 7.6 °C 1017.8 hPa SW 3.2 km/h 9.7 km/h 95 % 0.0 mm
05:47 8.4 °C 7.6 °C 1017.8 hPa Calm   9.7 km/h 95 % 0.0 mm
05:52 8.4 °C 7.6 °C 1017.8 hPa SW 3.2 km/h 9.7 km/h 95 % 0.0 mm
05:57 8.4 °C 7.6 °C 1017.8 hPa SW 8.0 km/h 8.0 km/h 95 % 0.0 mm
06:02 8.3 °C 7.5 °C 1017.8 hPa SW 1.6 km/h 8.0 km/h 95 % 0.0 mm
06:07 8.3 °C 7.5 °C 1017.8 hPa Calm   8.0 km/h 95 % 0.0 mm
06:12 8.3 °C 7.5 °C 1018.2 hPa ESE 1.6 km/h 8.0 km/h 95 % 0.0 mm
06:17 8.3 °C 7.5 °C 1017.8 hPa SW 3.2 km/h 6.4 km/h 95 % 0.0 mm
06:22 8.3 °C 7.5 °C 1017.8 hPa Calm   6.4 km/h 95 % 0.0 mm
06:32 8.3 °C 7.5 °C 1017.8 hPa Calm   6.4 km/h 95 % 0.0 mm
06:42 8.1 °C 7.3 °C 1017.8 hPa SW 1.6 km/h 6.4 km/h 95 % 0.0 mm
06:47 8.1 °C 7.3 °C 1017.5 hPa Calm   4.8 km/h 95 % 0.0 mm
06:52 8.0 °C 7.4 °C 1017.8 hPa SW 1.6 km/h 4.8 km/h 96 % 0.0 mm
06:57 8.0 °C 7.4 °C 1017.8 hPa SW 4.8 km/h 4.8 km/h 96 % 0.0 mm
07:02 8.0 °C 7.4 °C 1017.8 hPa WSW 1.6 km/h 4.8 km/h 96 % 0.0 mm
07:12 8.1 °C 7.5 °C 1017.8 hPa SW 4.8 km/h 4.8 km/h 96 % 0.0 mm
07:17 8.2 °C 7.4 °C 1017.8 hPa Calm   4.8 km/h 95 % 0.0 mm
07:22 8.2 °C 7.4 °C 1017.8 hPa Calm   6.4 km/h 95 % 0.0 mm
07:27 8.2 °C 7.4 °C 1017.5 hPa Calm   6.4 km/h 95 % 0.0 mm
07:32 8.1 °C 7.3 °C 1017.5 hPa Calm   6.4 km/h 95 % 0.0 mm
07:37 8.1 °C 7.5 °C 1017.5 hPa SW 1.6 km/h 6.4 km/h 96 % 0.0 mm
07:42 8.1 °C 7.5 °C 1017.5 hPa Calm   3.2 km/h 96 % 0.0 mm
07:47 8.0 °C 7.4 °C 1017.5 hPa SW 3.2 km/h 3.2 km/h 96 % 0.0 mm
07:52 8.0 °C 7.4 °C 1017.5 hPa West 3.2 km/h 4.8 km/h 96 % 0.0 mm
07:57 8.1 °C 7.3 °C 1017.5 hPa SW 1.6 km/h 4.8 km/h 95 % 0.0 mm
08:07 8.1 °C 7.3 °C 1017.5 hPa SW 1.6 km/h 6.4 km/h 95 % 0.0 mm
08:17 8.1 °C 7.3 °C 1017.5 hPa WSW 1.6 km/h 6.4 km/h 95 % 0.0 mm
08:22 8.1 °C 7.3 °C 1017.5 hPa Calm   6.4 km/h 95 % 0.0 mm
08:27 8.1 °C 7.3 °C 1017.5 hPa SW 1.6 km/h 6.4 km/h 95 % 0.0 mm
08:32 8.1 °C 7.3 °C 1017.5 hPa SW 1.6 km/h 6.4 km/h 95 % 0.0 mm
08:37 8.1 °C 7.3 °C 1017.5 hPa WSW 1.6 km/h 6.4 km/h 95 % 0.0 mm
08:42 8.1 °C 7.3 °C 1017.2 hPa WSW 3.2 km/h 8.0 km/h 95 % 0.0 mm
08:47 8.2 °C 7.4 °C 1017.2 hPa SW 4.8 km/h 8.0 km/h 95 % 0.0 mm
08:52 8.2 °C 7.4 °C 1017.2 hPa SW 3.2 km/h 9.7 km/h 95 % 0.0 mm
08:57 8.2 °C 7.4 °C 1017.2 hPa WSW 3.2 km/h 9.7 km/h 95 % 0.0 mm
09:02 8.3 °C 7.5 °C 1017.2 hPa WSW 3.2 km/h 4.8 km/h 95 % 0.0 mm
09:12 8.4 °C 7.6 °C 1017.2 hPa WSW 3.2 km/h 9.7 km/h 95 % 0.0 mm
09:17 8.4 °C 7.6 °C 1017.2 hPa SW 1.6 km/h 9.7 km/h 95 % 0.0 mm
09:22 8.5 °C 7.7 °C 1017.2 hPa WSW 3.2 km/h 9.7 km/h 95 % 0.0 mm
09:27 8.5 °C 7.6 °C 1017.2 hPa WSW 3.2 km/h 8.0 km/h 94 % 0.0 mm
09:32 8.6 °C 7.7 °C 1017.2 hPa SW 1.6 km/h 8.0 km/h 94 % 0.0 mm
09:37 8.7 °C 7.8 °C 1017.2 hPa SW 4.8 km/h 8.0 km/h 94 % 0.0 mm
09:42 8.7 °C 7.8 °C 1017.2 hPa SSE 1.6 km/h 8.0 km/h 94 % 0.0 mm
09:47 8.8 °C 7.9 °C 1017.2 hPa SW 1.6 km/h 8.0 km/h 94 % 0.0 mm
09:52 8.8 °C 7.9 °C 1017.2 hPa SSW 3.2 km/h 8.0 km/h 94 % 0.0 mm
09:57 8.9 °C 8.0 °C 1017.2 hPa SSW 4.8 km/h 9.7 km/h 94 % 0.0 mm
10:02 8.9 °C 8.0 °C 1017.2 hPa SW 4.8 km/h 9.7 km/h 94 % 0.0 mm
10:07 9.0 °C 7.9 °C 1017.2 hPa SW 1.6 km/h 9.7 km/h 93 % 0.0 mm
10:12 9.2 °C 8.1 °C 1017.2 hPa WSW 3.2 km/h 9.7 km/h 93 % 0.0 mm
10:17 9.3 °C 8.2 °C 1016.8 hPa SW 3.2 km/h 9.7 km/h 93 % 0.0 mm
10:22 9.4 °C 8.3 °C 1016.8 hPa SW 3.2 km/h 9.7 km/h 93 % 0.0 mm
10:27 9.6 °C 8.5 °C 1016.8 hPa WSW 6.4 km/h 9.7 km/h 93 % 0.0 mm
10:32 9.6 °C 8.4 °C 1016.8 hPa SW 4.8 km/h 9.7 km/h 92 % 0.0 mm
10:37 9.6 °C 8.4 °C 1016.8 hPa WSW 3.2 km/h 9.7 km/h 92 % 0.0 mm
10:42 9.6 °C 8.2 °C 1016.8 hPa WSW 3.2 km/h 9.7 km/h 91 % 0.0 mm
10:52 9.7 °C 8.3 °C 1016.5 hPa SW 1.6 km/h 9.7 km/h 91 % 0.0 mm
10:57 9.7 °C 8.3 °C 1016.5 hPa SSW 8.0 km/h 12.9 km/h 91 % 0.0 mm
11:02 9.7 °C 8.3 °C 1016.5 hPa SE 1.6 km/h 12.9 km/h 91 % 0.0 mm
11:07 9.7 °C 8.3 °C 1016.8 hPa SW 4.8 km/h 11.3 km/h 91 % 0.0 mm
11:12 9.7 °C 8.3 °C 1016.8 hPa SW 8.0 km/h 11.3 km/h 91 % 0.0 mm
11:17 9.7 °C 8.3 °C 1016.8 hPa SW 4.8 km/h 11.3 km/h 91 % 0.0 mm
11:22 9.7 °C 8.3 °C 1016.8 hPa SW 8.0 km/h 11.3 km/h 91 % 0.0 mm
11:27 9.8 °C 8.4 °C 1016.8 hPa SW 9.7 km/h 14.5 km/h 91 % 0.0 mm
11:32 9.9 °C 8.5 °C 1016.8 hPa WSW 6.4 km/h 14.5 km/h 91 % 0.0 mm
11:37 10.0 °C 8.4 °C 1016.8 hPa SW 4.8 km/h 12.9 km/h 90 % 0.0 mm
11:42 10.2 °C 8.6 °C 1016.8 hPa SW 6.4 km/h 12.9 km/h 90 % 0.0 mm
11:52 10.3 °C 8.6 °C 1016.5 hPa SW 17.7 km/h 17.7 km/h 89 % 0.0 mm
12:02 10.3 °C 8.2 °C 1016.5 hPa SW 8.0 km/h 17.7 km/h 87 % 0.0 mm
12:07 10.3 °C 8.2 °C 1016.5 hPa WSW 11.3 km/h 17.7 km/h 87 % 0.0 mm
12:12 10.4 °C 8.3 °C 1016.5 hPa SW 4.8 km/h 17.7 km/h 87 % 0.0 mm
12:17 10.6 °C 8.4 °C 1016.5 hPa SSW 3.2 km/h 14.5 km/h 86 % 0.0 mm
12:22 10.7 °C 8.5 °C 1016.5 hPa West 4.8 km/h 14.5 km/h 86 % 0.0 mm
12:27 10.8 °C 8.6 °C 1016.5 hPa SSW 6.4 km/h 14.5 km/h 86 % 0.0 mm
12:32 10.7 °C 8.5 °C 1016.5 hPa SW 9.7 km/h 16.1 km/h 86 % 0.0 mm
12:37 10.8 °C 8.4 °C 1016.1 hPa SW 9.7 km/h 16.1 km/h 85 % 0.0 mm
12:42 10.9 °C 8.6 °C 1016.1 hPa SW 4.8 km/h 16.1 km/h 86 % 0.0 mm
12:47 11.0 °C 8.6 °C 1016.1 hPa WSW 4.8 km/h 16.1 km/h 85 % 0.0 mm
12:52 11.0 °C 8.2 °C 1016.1 hPa WSW 6.4 km/h 16.1 km/h 83 % 0.0 mm
12:57 11.1 °C 8.3 °C 1016.1 hPa SW 8.0 km/h 16.1 km/h 83 % 0.0 mm
13:02 11.2 °C 8.4 °C 1016.1 hPa SW 3.2 km/h 16.1 km/h 83 % 0.0 mm
13:07 11.3 °C 8.3 °C 1015.8 hPa SW 4.8 km/h 14.5 km/h 82 % 0.0 mm
13:12 11.3 °C 8.0 °C 1015.8 hPa SW 3.2 km/h 14.5 km/h 80 % 0.0 mm
13:17 11.3 °C 7.8 °C 1015.8 hPa SW 1.6 km/h 14.5 km/h 79 % 0.0 mm
13:22 11.3 °C 7.8 °C 1015.8 hPa SW 8.0 km/h 14.5 km/h 79 % 0.0 mm
13:27 11.2 °C 7.9 °C 1015.5 hPa SW 4.8 km/h 16.1 km/h 80 % 0.0 mm
13:32 11.2 °C 8.1 °C 1015.5 hPa WSW 4.8 km/h 16.1 km/h 81 % 0.0 mm
13:37 11.3 °C 8.0 °C 1015.5 hPa WSW 3.2 km/h 14.5 km/h 80 % 0.0 mm
13:42 11.2 °C 8.4 °C 1015.5 hPa SW 3.2 km/h 14.5 km/h 83 % 0.0 mm
13:47 11.2 °C 8.2 °C 1015.5 hPa WSW 3.2 km/h 12.9 km/h 82 % 0.0 mm
13:52 11.0 °C 7.9 °C 1015.5 hPa SW 4.8 km/h 12.9 km/h 81 % 0.0 mm
13:57 11.0 °C 8.2 °C 1015.5 hPa SSW 3.2 km/h 12.9 km/h 83 % 0.0 mm
14:02 11.0 °C 8.0 °C 1015.5 hPa SSW 4.8 km/h 12.9 km/h 82 % 0.0 mm
14:07 11.1 °C 8.3 °C 1015.1 hPa SW 1.6 km/h 11.3 km/h 83 % 0.0 mm
14:12 11.1 °C 8.1 °C 1015.1 hPa SSW 4.8 km/h 11.3 km/h 82 % 0.0 mm
14:17 11.1 °C 8.3 °C 1015.1 hPa Calm   11.3 km/h 83 % 0.0 mm
14:22 11.1 °C 8.3 °C 1015.1 hPa South 3.2 km/h 11.3 km/h 83 % 0.0 mm
14:27 11.2 °C 8.4 °C 1015.1 hPa WSW 6.4 km/h 12.9 km/h 83 % 0.0 mm
14:32 11.2 °C 8.4 °C 1015.1 hPa WSW 9.7 km/h 12.9 km/h 83 % 0.0 mm
14:37 11.1 °C 8.1 °C 1015.1 hPa WSW 9.7 km/h 12.9 km/h 82 % 0.0 mm
14:42 10.9 °C 7.9 °C 1015.1 hPa SW 12.9 km/h 12.9 km/h 82 % 0.0 mm
14:47 10.8 °C 8.0 °C 1015.1 hPa WSW 4.8 km/h 22.5 km/h 83 % 0.0 mm
14:57 10.7 °C 7.9 °C 1015.1 hPa SW 6.4 km/h 22.5 km/h 83 % 0.0 mm
15:02 10.8 °C 8.2 °C 1014.8 hPa SW 1.6 km/h 22.5 km/h 84 % 0.0 mm
15:07 10.9 °C 8.1 °C 1014.8 hPa WSW 6.4 km/h 14.5 km/h 83 % 0.0 mm
15:12 10.8 °C 7.9 °C 1014.8 hPa WSW 4.8 km/h 14.5 km/h 82 % 0.0 mm
15:17 10.8 °C 7.9 °C 1014.8 hPa West 1.6 km/h 12.9 km/h 82 % 0.0 mm
15:22 10.7 °C 7.8 °C 1014.8 hPa SW 4.8 km/h 12.9 km/h 82 % 0.0 mm
15:27 10.7 °C 7.8 °C 1014.8 hPa WSW 3.2 km/h 11.3 km/h 82 % 0.0 mm
15:32 10.7 °C 7.9 °C 1014.8 hPa WSW 1.6 km/h 11.3 km/h 83 % 0.0 mm
15:37 10.6 °C 7.8 °C 1014.8 hPa WSW 3.2 km/h 9.7 km/h 83 % 0.0 mm
15:42 10.6 °C 7.8 °C 1014.8 hPa SW 3.2 km/h 9.7 km/h 83 % 0.0 mm
15:47 10.6 °C 7.8 °C 1014.8 hPa SW 3.2 km/h 11.3 km/h 83 % 0.0 mm
15:52 10.5 °C 7.9 °C 1014.8 hPa SW 4.8 km/h 11.3 km/h 84 % 0.0 mm
15:57 10.4 °C 8.0 °C 1014.8 hPa SSE 3.2 km/h 11.3 km/h 85 % 0.0 mm
16:02 10.3 °C 7.9 °C 1014.8 hPa SSW 8.0 km/h 11.3 km/h 85 % 0.0 mm
16:12 10.2 °C 8.0 °C 1014.8 hPa South 3.2 km/h 9.7 km/h 86 % 0.0 mm
16:27 9.6 °C 8.2 °C 1014.8 hPa SW 1.6 km/h 11.3 km/h 91 % 0.0 mm
16:32 9.5 °C 8.3 °C 1014.8 hPa WSW 1.6 km/h 11.3 km/h 92 % 0.0 mm
16:37 9.5 °C 8.4 °C 1014.8 hPa WSW 3.2 km/h 9.7 km/h 93 % 0.0 mm
16:42 9.5 °C 8.3 °C 1014.4 hPa WSW 1.6 km/h 9.7 km/h 92 % 0.0 mm
16:47 9.5 °C 8.4 °C 1014.4 hPa SW 4.8 km/h 12.9 km/h 93 % 0.0 mm
16:52 9.5 °C 8.3 °C 1014.4 hPa SW 3.2 km/h 12.9 km/h 92 % 0.0 mm
16:57 9.6 °C 8.4 °C 1014.4 hPa West 1.6 km/h 12.9 km/h 92 % 0.0 mm
17:02 9.6 °C 8.4 °C 1014.4 hPa WSW 4.8 km/h 12.9 km/h 92 % 0.0 mm
17:07 9.6 °C 8.4 °C 1014.4 hPa SW 3.2 km/h 11.3 km/h 92 % 0.0 mm
17:12 9.6 °C 8.2 °C 1014.4 hPa SW 3.2 km/h 11.3 km/h 91 % 0.0 mm
17:17 9.7 °C 8.3 °C 1014.4 hPa Calm   9.7 km/h 91 % 0.0 mm
17:22 9.7 °C 8.3 °C 1014.4 hPa WSW 3.2 km/h 9.7 km/h 91 % 0.0 mm
17:27 9.7 °C 8.1 °C 1014.4 hPa South 3.2 km/h 9.7 km/h 90 % 0.0 mm
17:32 9.7 °C 8.0 °C 1014.4 hPa WSW 6.4 km/h 9.7 km/h 89 % 0.0 mm
17:37 9.7 °C 8.0 °C 1014.4 hPa SW 1.6 km/h 11.3 km/h 89 % 0.0 mm
17:42 9.7 °C 8.0 °C 1014.4 hPa SSW 3.2 km/h 11.3 km/h 89 % 0.0 mm
17:47 9.7 °C 8.0 °C 1014.4 hPa Calm   9.7 km/h 89 % 0.0 mm
17:52 9.7 °C 8.0 °C 1014.4 hPa SW 4.8 km/h 9.7 km/h 89 % 0.0 mm
17:57 9.7 °C 8.0 °C 1014.4 hPa Calm   9.7 km/h 89 % 0.0 mm
18:02 9.7 °C 7.8 °C 1014.4 hPa SW 1.6 km/h 9.7 km/h 88 % 0.0 mm
18:07 9.7 °C 7.8 °C 1014.4 hPa WSW 3.2 km/h 14.5 km/h 88 % 0.0 mm
18:12 9.6 °C 7.7 °C 1014.4 hPa SW 6.4 km/h 14.5 km/h 88 % 0.0 mm
18:17 9.6 °C 7.7 °C 1014.4 hPa SW 4.8 km/h 14.5 km/h 88 % 0.0 mm
18:22 9.6 °C 7.9 °C 1014.8 hPa SSW 3.2 km/h 11.3 km/h 89 % 0.0 mm
18:27 9.6 °C 7.9 °C 1014.8 hPa WSW 1.6 km/h 11.3 km/h 89 % 0.0 mm
18:32 9.5 °C 7.9 °C 1014.8 hPa SW 6.4 km/h 16.1 km/h 90 % 0.0 mm
18:37 9.3 °C 7.9 °C 1014.8 hPa SSW 1.6 km/h 16.1 km/h 91 % 0.0 mm
18:42 9.1 °C 7.9 °C 1014.8 hPa SW 4.8 km/h 16.1 km/h 92 % 0.0 mm
18:52 8.9 °C 7.8 °C 1014.8 hPa Calm   11.3 km/h 93 % 0.0 mm
18:57 8.9 °C 8.0 °C 1014.8 hPa SE 1.6 km/h 8.0 km/h 94 % 0.0 mm
19:02 8.8 °C 7.9 °C 1014.8 hPa WSW 1.6 km/h 8.0 km/h 94 % 0.0 mm
19:07 8.8 °C 8.0 °C 1015.1 hPa SSW 3.2 km/h 6.4 km/h 95 % 0.3 mm
19:17 8.7 °C 7.9 °C 1014.8 hPa SW 1.6 km/h 6.4 km/h 95 % 0.3 mm
19:22 8.7 °C 8.1 °C 1015.1 hPa SW 3.2 km/h 6.4 km/h 96 % 0.3 mm
19:27 8.7 °C 8.1 °C 1015.1 hPa SW 3.2 km/h 6.4 km/h 96 % 0.3 mm
19:32 8.7 °C 8.1 °C 1015.1 hPa SW 6.4 km/h 6.4 km/h 96 % 0.3 mm
19:37 8.7 °C 8.1 °C 1014.8 hPa SW 4.8 km/h 8.0 km/h 96 % 0.3 mm
19:42 8.7 °C 8.1 °C 1015.1 hPa SW 1.6 km/h 8.0 km/h 96 % 0.5 mm
19:47 8.7 °C 8.1 °C 1015.1 hPa SW 4.8 km/h 11.3 km/h 96 % 0.5 mm
19:52 8.8 °C 8.2 °C 1015.1 hPa WSW 4.8 km/h 11.3 km/h 96 % 0.5 mm
19:57 8.8 °C 8.2 °C 1015.1 hPa SW 6.4 km/h 12.9 km/h 96 % 0.5 mm
20:02 8.8 °C 8.2 °C 1015.1 hPa SW 4.8 km/h 12.9 km/h 96 % 0.5 mm
20:07 8.8 °C 8.2 °C 1015.1 hPa WSW 3.2 km/h 11.3 km/h 96 % 0.3 mm
20:12 8.8 °C 8.2 °C 1015.1 hPa SW 1.6 km/h 11.3 km/h 96 % 0.3 mm
20:17 8.8 °C 8.2 °C 1015.1 hPa SW 8.0 km/h 9.7 km/h 96 % 0.3 mm
20:22 8.8 °C 8.2 °C 1015.1 hPa SW 4.8 km/h 9.7 km/h 96 % 0.5 mm
20:27 8.8 °C 8.2 °C 1015.1 hPa WSW 1.6 km/h 11.3 km/h 96 % 0.5 mm
20:32 8.8 °C 8.2 °C 1015.1 hPa Calm   11.3 km/h 96 % 0.5 mm
20:37 8.8 °C 8.2 °C 1015.1 hPa WSW 4.8 km/h 9.7 km/h 96 % 0.3 mm
20:42 8.8 °C 8.2 °C 1015.1 hPa SW 4.8 km/h 9.7 km/h 96 % 0.3 mm
20:47 8.8 °C 8.0 °C 1015.1 hPa SW 4.8 km/h 11.3 km/h 95 % 0.3 mm
20:52 8.8 °C 8.0 °C 1014.8 hPa WSW 3.2 km/h 11.3 km/h 95 % 0.3 mm
20:57 8.8 °C 8.0 °C 1014.8 hPa WSW 8.0 km/h 12.9 km/h 95 % 0.3 mm
21:02 8.8 °C 8.0 °C 1015.1 hPa WSW 3.2 km/h 12.9 km/h 95 % 0.3 mm
21:07 8.8 °C 8.0 °C 1014.8 hPa SW 4.8 km/h 11.3 km/h 95 % 0.3 mm
21:12 8.9 °C 8.1 °C 1015.1 hPa SW 4.8 km/h 11.3 km/h 95 % 0.3 mm
21:17 8.9 °C 8.1 °C 1015.1 hPa WSW 3.2 km/h 12.9 km/h 95 % 0.3 mm
21:22 8.9 °C 8.1 °C 1014.8 hPa SW 6.4 km/h 12.9 km/h 95 % 0.0 mm
21:27 8.9 °C 8.1 °C 1014.8 hPa WSW 12.9 km/h 12.9 km/h 95 % 0.0 mm
21:32 8.9 °C 8.1 °C 1014.8 hPa West 4.8 km/h 12.9 km/h 95 % 0.0 mm
21:37 8.9 °C 8.1 °C 1014.8 hPa SW 6.4 km/h 14.5 km/h 95 % 0.0 mm
21:42 8.9 °C 8.1 °C 1014.8 hPa South 6.4 km/h 14.5 km/h 95 % 0.0 mm
21:47 8.8 °C 8.0 °C 1014.8 hPa ESE 1.6 km/h 16.1 km/h 95 % 0.0 mm
21:52 8.8 °C 8.0 °C 1014.8 hPa SW 3.2 km/h 16.1 km/h 95 % 0.0 mm
21:57 8.8 °C 8.0 °C 1014.8 hPa SSW 6.4 km/h 17.7 km/h 95 % 0.0 mm
22:02 8.9 °C 8.1 °C 1014.8 hPa SW 4.8 km/h 17.7 km/h 95 % 0.0 mm
22:07 8.9 °C 8.1 °C 1015.1 hPa WSW 4.8 km/h 17.7 km/h 95 % 0.0 mm
22:12 8.9 °C 8.1 °C 1015.1 hPa SW 1.6 km/h 17.7 km/h 95 % 0.0 mm
22:17 8.9 °C 8.1 °C 1015.1 hPa SW 8.0 km/h 16.1 km/h 95 % 0.0 mm
22:22 8.9 °C 8.1 °C 1015.1 hPa SW 8.0 km/h 16.1 km/h 95 % 0.0 mm
22:27 9.0 °C 8.2 °C 1014.8 hPa SW 3.2 km/h 14.5 km/h 95 % 0.0 mm
22:32 9.0 °C 8.2 °C 1015.1 hPa SW 4.8 km/h 14.5 km/h 95 % 0.0 mm
22:37 9.0 °C 8.2 °C 1015.1 hPa SW 1.6 km/h 14.5 km/h 95 % 0.0 mm
22:42 9.0 °C 8.2 °C 1015.1 hPa WSW 8.0 km/h 14.5 km/h 95 % 0.0 mm
22:47 9.0 °C 8.2 °C 1015.1 hPa WSW 6.4 km/h 12.9 km/h 95 % 0.0 mm
22:52 9.0 °C 8.2 °C 1015.1 hPa WNW 1.6 km/h 12.9 km/h 95 % 0.0 mm
22:57 8.9 °C 8.1 °C 1015.1 hPa SW 6.4 km/h 12.9 km/h 95 % 0.0 mm
23:02 8.9 °C 8.1 °C 1015.1 hPa WSW 4.8 km/h 12.9 km/h 95 % 0.0 mm
23:07 8.9 °C 8.1 °C 1015.1 hPa West 6.4 km/h 11.3 km/h 95 % 0.0 mm
23:12 8.9 °C 8.3 °C 1014.8 hPa South 1.6 km/h 11.3 km/h 96 % 0.0 mm
23:17 8.8 °C 8.2 °C 1014.8 hPa West 3.2 km/h 14.5 km/h 96 % 0.3 mm
23:22 8.8 °C 8.2 °C 1015.1 hPa SW 9.7 km/h 14.5 km/h 96 % 0.3 mm
23:27 8.8 °C 8.2 °C 1014.8 hPa SW 12.9 km/h 20.9 km/h 96 % 0.3 mm
23:32 8.8 °C 8.2 °C 1014.8 hPa West 1.6 km/h 20.9 km/h 96 % 0.3 mm
23:37 8.8 °C 8.2 °C 1014.8 hPa SW 6.4 km/h 14.5 km/h 96 % 0.3 mm
23:42 8.8 °C 8.2 °C 1014.8 hPa SW 8.0 km/h 14.5 km/h 96 % 0.3 mm
23:52 8.8 °C 8.2 °C 1014.8 hPa WSW 4.8 km/h 14.5 km/h 96 % 0.3 mm
23:57 8.8 °C 8.2 °C 1014.8 hPa SW 3.2 km/h 12.9 km/h 96 % 0.3 mm
Meteo18
Compliments of Weather Underground - 4 mb

Script developed by  Jim McMurry - jmcmurry@mwt.net Adapted for the template by  Wim van der Kuil - Leuven-Template.eu

You find our weather info also at:

European Weather Network

Weather Underground

Equipment we use:

Weather-station
Davis Vue

Weather-program
Meteohub

Weather-server
Raspberry PI 2 B+

Provider
1 and 1

Davis Vue

Meteohub

Raspberry PI 2 B+

1 and 1